sensor_id;sensor_type;location;lat;lon;timestamp;temperature;humidity
40077;DHT22;25777;47.824;18.982;2023-03-31T00:00:51;8.10;99.90
40077;DHT22;25777;47.824;18.982;2023-03-31T00:03:23;8.20;99.90
40077;DHT22;25777;47.824;18.982;2023-03-31T00:05:59;8.20;99.90
40077;DHT22;25777;47.824;18.982;2023-03-31T00:08:29;8.20;99.90
40077;DHT22;25777;47.824;18.982;2023-03-31T00:11:02;8.30;99.90
40077;DHT22;25777;47.824;18.982;2023-03-31T00:13:29;8.30;99.90
40077;DHT22;25777;47.824;18.982;2023-03-31T00:16:04;8.30;99.90
40077;DHT22;25777;47.824;18.982;2023-03-31T00:18:32;8.30;99.90
40077;DHT22;25777;47.824;18.982;2023-03-31T00:21:10;8.40;99.90
40077;DHT22;25777;47.824;18.982;2023-03-31T00:23:44;8.40;99.90
40077;DHT22;25777;47.824;18.982;2023-03-31T00:26:14;8.50;99.90
40077;DHT22;25777;47.824;18.982;2023-03-31T00:28:40;8.50;99.90
40077;DHT22;25777;47.824;18.982;2023-03-31T00:31:08;8.50;99.90
40077;DHT22;25777;47.824;18.982;2023-03-31T00:33:34;8.50;99.90
40077;DHT22;25777;47.824;18.982;2023-03-31T00:36:00;8.60;99.90
40077;DHT22;25777;47.824;18.982;2023-03-31T00:38:28;8.60;99.90
40077;DHT22;25777;47.824;18.982;2023-03-31T00:40:55;8.60;99.90
40077;DHT22;25777;47.824;18.982;2023-03-31T00:43:34;8.60;99.90
40077;DHT22;25777;47.824;18.982;2023-03-31T00:46:17;8.60;99.90
40077;DHT22;25777;47.824;18.982;2023-03-31T00:48:50;8.60;99.90
40077;DHT22;25777;47.824;18.982;2023-03-31T00:51:17;8.50;99.90
40077;DHT22;25777;47.824;18.982;2023-03-31T00:53:50;8.50;99.90
40077;DHT22;25777;47.824;18.982;2023-03-31T00:56:20;8.60;99.90
40077;DHT22;25777;47.824;18.982;2023-03-31T00:58:47;8.60;99.90
40077;DHT22;25777;47.824;18.982;2023-03-31T01:01:19;8.60;99.90
40077;DHT22;25777;47.824;18.982;2023-03-31T01:03:56;8.50;99.90
40077;DHT22;25777;47.824;18.982;2023-03-31T01:06:25;8.50;99.90
40077;DHT22;25777;47.824;18.982;2023-03-31T01:08:55;8.50;99.90
40077;DHT22;25777;47.824;18.982;2023-03-31T01:11:24;8.60;99.90
40077;DHT22;25777;47.824;18.982;2023-03-31T01:13:53;8.60;99.90
40077;DHT22;25777;47.824;18.982;2023-03-31T01:16:21;8.50;99.90
40077;DHT22;25777;47.824;18.982;2023-03-31T01:18:48;8.40;99.90
40077;DHT22;25777;47.824;18.982;2023-03-31T01:21:44;8.40;99.90
40077;DHT22;25777;47.824;18.982;2023-03-31T01:24:35;8.50;99.90
40077;DHT22;25777;47.824;18.982;2023-03-31T01:30:47;8.50;99.90
40077;DHT22;25777;47.824;18.982;2023-03-31T01:42:12;8.20;99.90
40077;DHT22;25777;47.824;18.982;2023-03-31T01:44:41;8.10;99.90
40077;DHT22;25777;47.824;18.982;2023-03-31T01:47:10;8.10;99.90
40077;DHT22;25777;47.824;18.982;2023-03-31T01:49:56;8.10;99.90
40077;DHT22;25777;47.824;18.982;2023-03-31T01:55:41;8.10;99.90
40077;DHT22;25777;47.824;18.982;2023-03-31T01:58:14;8.00;99.90
40077;DHT22;25777;47.824;18.982;2023-03-31T02:00:48;8.00;99.90
40077;DHT22;25777;47.824;18.982;2023-03-31T02:03:32;7.90;99.90
40077;DHT22;25777;47.824;18.982;2023-03-31T02:06:14;7.90;99.90
40077;DHT22;25777;47.824;18.982;2023-03-31T02:08:53;7.70;99.90
40077;DHT22;25777;47.824;18.982;2023-03-31T02:11:23;7.70;99.90
40077;DHT22;25777;47.824;18.982;2023-03-31T02:13:52;7.70;99.90
40077;DHT22;25777;47.824;18.982;2023-03-31T02:16:29;7.60;99.90
40077;DHT22;25777;47.824;18.982;2023-03-31T02:18:59;7.60;99.90
40077;DHT22;25777;47.824;18.982;2023-03-31T02:21:33;7.50;99.90
40077;DHT22;25777;47.824;18.982;2023-03-31T02:24:04;7.40;99.90
40077;DHT22;25777;47.824;18.982;2023-03-31T02:26:40;7.30;99.90
40077;DHT22;25777;47.824;18.982;2023-03-31T02:29:09;7.30;99.90
40077;DHT22;25777;47.824;18.982;2023-03-31T02:34:30;7.20;99.90
40077;DHT22;25777;47.824;18.982;2023-03-31T02:36:56;7.20;99.90
40077;DHT22;25777;47.824;18.982;2023-03-31T02:39:33;7.20;99.90
40077;DHT22;25777;47.824;18.982;2023-03-31T02:42:05;7.10;99.90
40077;DHT22;25777;47.824;18.982;2023-03-31T02:44:41;7.10;99.90
40077;DHT22;25777;47.824;18.982;2023-03-31T02:47:10;7.10;99.90
40077;DHT22;25777;47.824;18.982;2023-03-31T02:49:39;7.10;99.90
40077;DHT22;25777;47.824;18.982;2023-03-31T03:03:35;6.90;99.90
40077;DHT22;25777;47.824;18.982;2023-03-31T03:09:26;6.80;99.90
40077;DHT22;25777;47.824;18.982;2023-03-31T03:15:14;6.70;99.90
40077;DHT22;25777;47.824;18.982;2023-03-31T03:17:49;6.70;99.90
40077;DHT22;25777;47.824;18.982;2023-03-31T03:20:18;6.70;99.90
40077;DHT22;25777;47.824;18.982;2023-03-31T03:22:44;6.60;99.90
40077;DHT22;25777;47.824;18.982;2023-03-31T03:25:13;6.50;99.90
40077;DHT22;25777;47.824;18.982;2023-03-31T03:27:41;6.50;99.90
40077;DHT22;25777;47.824;18.982;2023-03-31T03:30:13;6.50;99.90
40077;DHT22;25777;47.824;18.982;2023-03-31T03:32:40;6.50;99.90
40077;DHT22;25777;47.824;18.982;2023-03-31T03:35:07;6.50;99.90
40077;DHT22;25777;47.824;18.982;2023-03-31T03:37:33;6.40;99.90
40077;DHT22;25777;47.824;18.982;2023-03-31T03:39:59;6.40;99.90
40077;DHT22;25777;47.824;18.982;2023-03-31T03:42:26;6.40;99.90
40077;DHT22;25777;47.824;18.982;2023-03-31T03:44:53;6.30;99.90
40077;DHT22;25777;47.824;18.982;2023-03-31T03:47:20;6.30;99.90
40077;DHT22;25777;47.824;18.982;2023-03-31T03:49:47;6.30;99.90
40077;DHT22;25777;47.824;18.982;2023-03-31T03:52:15;6.20;99.90
40077;DHT22;25777;47.824;18.982;2023-03-31T03:54:43;6.10;99.90
40077;DHT22;25777;47.824;18.982;2023-03-31T03:57:09;6.10;99.90
40077;DHT22;25777;47.824;18.982;2023-03-31T03:59:36;6.00;99.90
40077;DHT22;25777;47.824;18.982;2023-03-31T04:02:03;6.00;99.90
40077;DHT22;25777;47.824;18.982;2023-03-31T04:04:30;6.00;99.90
40077;DHT22;25777;47.824;18.982;2023-03-31T04:06:57;6.00;99.90
40077;DHT22;25777;47.824;18.982;2023-03-31T04:09:24;6.10;99.90
40077;DHT22;25777;47.824;18.982;2023-03-31T04:11:50;6.00;99.90
40077;DHT22;25777;47.824;18.982;2023-03-31T04:14:17;6.00;99.90
40077;DHT22;25777;47.824;18.982;2023-03-31T04:16:43;5.90;99.90
40077;DHT22;25777;47.824;18.982;2023-03-31T04:19:14;5.90;99.90
40077;DHT22;25777;47.824;18.982;2023-03-31T04:21:42;5.90;99.90
40077;DHT22;25777;47.824;18.982;2023-03-31T04:24:12;5.70;99.90
40077;DHT22;25777;47.824;18.982;2023-03-31T04:26:46;5.70;99.90
40077;DHT22;25777;47.824;18.982;2023-03-31T04:29:16;5.70;99.90
40077;DHT22;25777;47.824;18.982;2023-03-31T04:31:42;5.70;99.90
40077;DHT22;25777;47.824;18.982;2023-03-31T04:34:13;5.60;99.90
40077;DHT22;25777;47.824;18.982;2023-03-31T04:36:40;5.60;99.90
40077;DHT22;25777;47.824;18.982;2023-03-31T04:39:13;5.40;99.90
40077;DHT22;25777;47.824;18.982;2023-03-31T04:41:39;5.20;99.90
40077;DHT22;25777;47.824;18.982;2023-03-31T04:44:05;5.20;99.90
40077;DHT22;25777;47.824;18.982;2023-03-31T04:46:32;5.10;99.90
40077;DHT22;25777;47.824;18.982;2023-03-31T04:48:58;5.20;99.90
40077;DHT22;25777;47.824;18.982;2023-03-31T04:51:31;5.20;99.90
40077;DHT22;25777;47.824;18.982;2023-03-31T04:53:59;5.10;99.90
40077;DHT22;25777;47.824;18.982;2023-03-31T04:56:26;4.90;99.90
40077;DHT22;25777;47.824;18.982;2023-03-31T04:58:53;4.90;99.90
40077;DHT22;25777;47.824;18.982;2023-03-31T05:01:20;4.80;99.90
40077;DHT22;25777;47.824;18.982;2023-03-31T05:03:51;5.00;99.90
40077;DHT22;25777;47.824;18.982;2023-03-31T05:06:17;5.00;99.90
40077;DHT22;25777;47.824;18.982;2023-03-31T05:08:44;5.00;99.90
40077;DHT22;25777;47.824;18.982;2023-03-31T05:11:11;5.00;99.90
40077;DHT22;25777;47.824;18.982;2023-03-31T05:13:37;5.10;99.90
40077;DHT22;25777;47.824;18.982;2023-03-31T05:16:08;5.20;99.90
40077;DHT22;25777;47.824;18.982;2023-03-31T05:18:36;5.30;99.90
40077;DHT22;25777;47.824;18.982;2023-03-31T05:21:16;5.30;99.90
40077;DHT22;25777;47.824;18.982;2023-03-31T05:23:49;5.30;99.90
40077;DHT22;25777;47.824;18.982;2023-03-31T05:26:15;5.50;99.90
40077;DHT22;25777;47.824;18.982;2023-03-31T05:28:41;5.60;99.90
40077;DHT22;25777;47.824;18.982;2023-03-31T05:31:08;5.60;99.90
40077;DHT22;25777;47.824;18.982;2023-03-31T05:33:36;5.70;99.90
40077;DHT22;25777;47.824;18.982;2023-03-31T05:36:08;5.80;99.90
40077;DHT22;25777;47.824;18.982;2023-03-31T05:38:35;6.00;99.90
40077;DHT22;25777;47.824;18.982;2023-03-31T05:41:01;6.10;99.90
40077;DHT22;25777;47.824;18.982;2023-03-31T05:43:28;6.20;99.90
40077;DHT22;25777;47.824;18.982;2023-03-31T05:46:01;6.30;99.90
40077;DHT22;25777;47.824;18.982;2023-03-31T05:48:27;6.40;99.90
40077;DHT22;25777;47.824;18.982;2023-03-31T05:50:58;6.60;99.90
40077;DHT22;25777;47.824;18.982;2023-03-31T05:53:25;6.80;99.90
40077;DHT22;25777;47.824;18.982;2023-03-31T05:56:02;7.00;99.90
40077;DHT22;25777;47.824;18.982;2023-03-31T05:58:32;7.10;99.90
40077;DHT22;25777;47.824;18.982;2023-03-31T06:01:13;7.30;99.90
40077;DHT22;25777;47.824;18.982;2023-03-31T06:03:44;7.50;99.90
40077;DHT22;25777;47.824;18.982;2023-03-31T06:06:11;7.80;99.90
40077;DHT22;25777;47.824;18.982;2023-03-31T06:08:43;8.00;99.90
40077;DHT22;25777;47.824;18.982;2023-03-31T06:11:14;8.30;99.90
40077;DHT22;25777;47.824;18.982;2023-03-31T06:13:45;8.60;99.90
40077;DHT22;25777;47.824;18.982;2023-03-31T06:16:18;8.80;99.90
40077;DHT22;25777;47.824;18.982;2023-03-31T06:18:44;9.00;99.90
40077;DHT22;25777;47.824;18.982;2023-03-31T06:21:13;9.20;99.90
40077;DHT22;25777;47.824;18.982;2023-03-31T06:23:40;9.40;99.90
40077;DHT22;25777;47.824;18.982;2023-03-31T06:26:12;9.70;99.90
40077;DHT22;25777;47.824;18.982;2023-03-31T06:28:40;9.90;99.90
40077;DHT22;25777;47.824;18.982;2023-03-31T06:31:08;10.10;99.90
40077;DHT22;25777;47.824;18.982;2023-03-31T06:33:39;10.20;99.90
40077;DHT22;25777;47.824;18.982;2023-03-31T06:36:06;10.20;99.90
40077;DHT22;25777;47.824;18.982;2023-03-31T06:38:34;10.20;99.90
40077;DHT22;25777;47.824;18.982;2023-03-31T06:41:01;10.20;99.90
40077;DHT22;25777;47.824;18.982;2023-03-31T06:43:34;10.10;99.90
40077;DHT22;25777;47.824;18.982;2023-03-31T06:46:00;10.20;99.90
40077;DHT22;25777;47.824;18.982;2023-03-31T06:48:26;10.30;99.90
40077;DHT22;25777;47.824;18.982;2023-03-31T06:50:54;10.40;99.90
40077;DHT22;25777;47.824;18.982;2023-03-31T06:53:21;10.40;99.90
40077;DHT22;25777;47.824;18.982;2023-03-31T06:55:47;10.30;99.90
40077;DHT22;25777;47.824;18.982;2023-03-31T06:58:13;10.40;99.90
40077;DHT22;25777;47.824;18.982;2023-03-31T07:00:39;10.50;99.90
40077;DHT22;25777;47.824;18.982;2023-03-31T07:03:05;10.70;99.90
40077;DHT22;25777;47.824;18.982;2023-03-31T07:05:35;10.70;99.90
40077;DHT22;25777;47.824;18.982;2023-03-31T07:08:02;10.80;99.90
40077;DHT22;25777;47.824;18.982;2023-03-31T07:10:31;10.80;99.90
40077;DHT22;25777;47.824;18.982;2023-03-31T07:12:58;10.90;99.90
40077;DHT22;25777;47.824;18.982;2023-03-31T07:15:25;11.00;99.90
40077;DHT22;25777;47.824;18.982;2023-03-31T07:17:58;11.20;99.90
40077;DHT22;25777;47.824;18.982;2023-03-31T07:20:28;11.30;99.90
40077;DHT22;25777;47.824;18.982;2023-03-31T07:22:55;11.50;99.90
40077;DHT22;25777;47.824;18.982;2023-03-31T07:25:23;11.60;99.90
40077;DHT22;25777;47.824;18.982;2023-03-31T07:27:53;11.80;99.90
40077;DHT22;25777;47.824;18.982;2023-03-31T07:30:20;12.00;99.90
40077;DHT22;25777;47.824;18.982;2023-03-31T07:32:48;11.90;99.90
40077;DHT22;25777;47.824;18.982;2023-03-31T07:35:16;11.90;99.90
40077;DHT22;25777;47.824;18.982;2023-03-31T07:37:44;11.90;99.90
40077;DHT22;25777;47.824;18.982;2023-03-31T07:40:23;12.00;99.90
40077;DHT22;25777;47.824;18.982;2023-03-31T07:42:50;12.30;99.90
40077;DHT22;25777;47.824;18.982;2023-03-31T07:45:19;12.50;99.90
40077;DHT22;25777;47.824;18.982;2023-03-31T07:47:46;12.70;99.90
40077;DHT22;25777;47.824;18.982;2023-03-31T07:50:14;12.70;99.90
40077;DHT22;25777;47.824;18.982;2023-03-31T07:52:42;12.80;99.90
40077;DHT22;25777;47.824;18.982;2023-03-31T07:55:10;13.00;99.90
40077;DHT22;25777;47.824;18.982;2023-03-31T07:57:36;13.20;99.90
40077;DHT22;25777;47.824;18.982;2023-03-31T08:00:07;13.40;99.90
40077;DHT22;25777;47.824;18.982;2023-03-31T08:02:36;13.50;99.90
40077;DHT22;25777;47.824;18.982;2023-03-31T08:05:04;13.50;99.90
40077;DHT22;25777;47.824;18.982;2023-03-31T08:07:39;13.50;99.90
40077;DHT22;25777;47.824;18.982;2023-03-31T08:10:08;13.40;99.90
40077;DHT22;25777;47.824;18.982;2023-03-31T08:12:36;13.50;99.90
40077;DHT22;25777;47.824;18.982;2023-03-31T08:15:03;13.40;99.90
40077;DHT22;25777;47.824;18.982;2023-03-31T08:17:29;13.40;99.90
40077;DHT22;25777;47.824;18.982;2023-03-31T08:19:55;13.60;99.90
40077;DHT22;25777;47.824;18.982;2023-03-31T08:22:23;13.70;99.90
40077;DHT22;25777;47.824;18.982;2023-03-31T08:24:49;13.90;99.90
40077;DHT22;25777;47.824;18.982;2023-03-31T08:27:15;13.90;99.90
40077;DHT22;25777;47.824;18.982;2023-03-31T08:29:41;13.80;99.90
40077;DHT22;25777;47.824;18.982;2023-03-31T08:32:22;13.80;99.90
40077;DHT22;25777;47.824;18.982;2023-03-31T08:34:48;14.00;99.90
40077;DHT22;25777;47.824;18.982;2023-03-31T08:37:17;14.20;99.90
40077;DHT22;25777;47.824;18.982;2023-03-31T08:39:43;14.60;99.90
40077;DHT22;25777;47.824;18.982;2023-03-31T08:42:41;14.90;99.90
40077;DHT22;25777;47.824;18.982;2023-03-31T08:45:27;15.40;99.90
40077;DHT22;25777;47.824;18.982;2023-03-31T08:48:03;15.50;99.10
40077;DHT22;25777;47.824;18.982;2023-03-31T08:50:33;15.60;99.20
40077;DHT22;25777;47.824;18.982;2023-03-31T08:53:06;15.60;97.30
40077;DHT22;25777;47.824;18.982;2023-03-31T08:55:54;15.60;96.80
40077;DHT22;25777;47.824;18.982;2023-03-31T08:58:41;15.80;94.90
40077;DHT22;25777;47.824;18.982;2023-03-31T09:01:23;16.20;95.80
40077;DHT22;25777;47.824;18.982;2023-03-31T09:10:32;16.30;92.40
40077;DHT22;25777;47.824;18.982;2023-03-31T09:16:11;16.70;91.20
40077;DHT22;25777;47.824;18.982;2023-03-31T09:18:41;16.60;86.60
40077;DHT22;25777;47.824;18.982;2023-03-31T09:24:02;16.70;91.10
40077;DHT22;25777;47.824;18.982;2023-03-31T09:26:42;17.10;89.40
40077;DHT22;25777;47.824;18.982;2023-03-31T09:29:15;17.10;90.90
40077;DHT22;25777;47.824;18.982;2023-03-31T09:31:46;16.90;90.30
40077;DHT22;25777;47.824;18.982;2023-03-31T09:34:29;17.00;90.30
40077;DHT22;25777;47.824;18.982;2023-03-31T09:36:58;17.10;88.70
40077;DHT22;25777;47.824;18.982;2023-03-31T09:39:25;17.10;88.90
40077;DHT22;25777;47.824;18.982;2023-03-31T09:41:52;17.20;85.70
40077;DHT22;25777;47.824;18.982;2023-03-31T09:44:36;17.20;89.80
40077;DHT22;25777;47.824;18.982;2023-03-31T09:47:05;17.10;86.60
40077;DHT22;25777;47.824;18.982;2023-03-31T09:49:34;16.90;88.20
40077;DHT22;25777;47.824;18.982;2023-03-31T09:52:27;17.10;91.20
40077;DHT22;25777;47.824;18.982;2023-03-31T09:54:57;17.80;87.50
40077;DHT22;25777;47.824;18.982;2023-03-31T09:57:30;18.90;84.20
40077;DHT22;25777;47.824;18.982;2023-03-31T10:00:12;19.30;81.00
40077;DHT22;25777;47.824;18.982;2023-03-31T10:02:51;19.50;77.90
40077;DHT22;25777;47.824;18.982;2023-03-31T10:05:48;19.50;76.60
40077;DHT22;25777;47.824;18.982;2023-03-31T10:08:28;19.50;78.90
40077;DHT22;25777;47.824;18.982;2023-03-31T10:11:13;19.60;74.40
40077;DHT22;25777;47.824;18.982;2023-03-31T10:13:59;19.40;73.30
40077;DHT22;25777;47.824;18.982;2023-03-31T10:16:47;19.70;75.30
40077;DHT22;25777;47.824;18.982;2023-03-31T10:19:30;19.60;76.50
40077;DHT22;25777;47.824;18.982;2023-03-31T10:21:59;19.40;74.90
40077;DHT22;25777;47.824;18.982;2023-03-31T10:24:42;19.20;75.40
40077;DHT22;25777;47.824;18.982;2023-03-31T10:27:23;18.90;79.50
40077;DHT22;25777;47.824;18.982;2023-03-31T10:29:55;18.70;82.00
40077;DHT22;25777;47.824;18.982;2023-03-31T10:32:27;18.40;81.60
40077;DHT22;25777;47.824;18.982;2023-03-31T10:35:13;18.20;83.10
40077;DHT22;25777;47.824;18.982;2023-03-31T10:37:47;18.50;80.90
40077;DHT22;25777;47.824;18.982;2023-03-31T10:42:46;19.20;79.40
40077;DHT22;25777;47.824;18.982;2023-03-31T10:48:23;19.80;78.90
40077;DHT22;25777;47.824;18.982;2023-03-31T10:53:47;20.20;76.10
40077;DHT22;25777;47.824;18.982;2023-03-31T11:07:45;19.10;64.20
40077;DHT22;25777;47.824;18.982;2023-03-31T11:16:06;18.80;71.40
40077;DHT22;25777;47.824;18.982;2023-03-31T11:30:09;18.20;70.40
40077;DHT22;25777;47.824;18.982;2023-03-31T11:41:56;18.10;76.50
40077;DHT22;25777;47.824;18.982;2023-03-31T11:44:24;18.00;77.90
40077;DHT22;25777;47.824;18.982;2023-03-31T11:47:05;17.90;78.10
40077;DHT22;25777;47.824;18.982;2023-03-31T11:49:40;17.80;76.40
40077;DHT22;25777;47.824;18.982;2023-03-31T11:52:36;17.80;77.40
40077;DHT22;25777;47.824;18.982;2023-03-31T11:55:20;18.00;75.20
40077;DHT22;25777;47.824;18.982;2023-03-31T11:58:10;18.20;75.50
40077;DHT22;25777;47.824;18.982;2023-03-31T12:00:47;18.50;74.80
40077;DHT22;25777;47.824;18.982;2023-03-31T12:05:49;18.70;70.60
40077;DHT22;25777;47.824;18.982;2023-03-31T12:11:06;18.30;73.40
40077;DHT22;25777;47.824;18.982;2023-03-31T12:16:39;18.60;73.30
40077;DHT22;25777;47.824;18.982;2023-03-31T12:22:14;18.50;72.50
40077;DHT22;25777;47.824;18.982;2023-03-31T12:24:45;18.50;69.20
40077;DHT22;25777;47.824;18.982;2023-03-31T12:27:29;18.50;71.60
40077;DHT22;25777;47.824;18.982;2023-03-31T12:30:24;18.60;70.10
40077;DHT22;25777;47.824;18.982;2023-03-31T12:32:54;18.60;70.80
40077;DHT22;25777;47.824;18.982;2023-03-31T12:35:38;18.60;69.80
40077;DHT22;25777;47.824;18.982;2023-03-31T12:41:09;18.80;70.20
40077;DHT22;25777;47.824;18.982;2023-03-31T12:46:54;19.10;68.20
40077;DHT22;25777;47.824;18.982;2023-03-31T12:52:46;19.10;67.20
40077;DHT22;25777;47.824;18.982;2023-03-31T13:01:24;18.60;67.60
40077;DHT22;25777;47.824;18.982;2023-03-31T13:09:01;18.80;67.00
40077;DHT22;25777;47.824;18.982;2023-03-31T13:11:39;18.80;66.90
40077;DHT22;25777;47.824;18.982;2023-03-31T13:14:24;18.60;69.60
40077;DHT22;25777;47.824;18.982;2023-03-31T13:17:23;18.40;68.20
40077;DHT22;25777;47.824;18.982;2023-03-31T13:19:50;18.20;68.00
40077;DHT22;25777;47.824;18.982;2023-03-31T13:22:36;18.00;69.00
40077;DHT22;25777;47.824;18.982;2023-03-31T13:25:40;17.90;68.50
40077;DHT22;25777;47.824;18.982;2023-03-31T13:28:13;17.90;69.60
40077;DHT22;25777;47.824;18.982;2023-03-31T13:44:45;17.40;73.90
40077;DHT22;25777;47.824;18.982;2023-03-31T13:51:23;17.50;74.80
40077;DHT22;25777;47.824;18.982;2023-03-31T13:53:52;17.50;75.70
40077;DHT22;25777;47.824;18.982;2023-03-31T14:00:33;17.20;75.30
40077;DHT22;25777;47.824;18.982;2023-03-31T14:02:49;17.00;78.70
40077;DHT22;25777;47.824;18.982;2023-03-31T14:10:50;15.70;86.30
40077;DHT22;25777;47.824;18.982;2023-03-31T14:13:18;15.40;88.50
40077;DHT22;25777;47.824;18.982;2023-03-31T14:15:52;15.10;91.10
40077;DHT22;25777;47.824;18.982;2023-03-31T14:18:29;15.10;94.70
40077;DHT22;25777;47.824;18.982;2023-03-31T14:21:03;14.60;99.90
40077;DHT22;25777;47.824;18.982;2023-03-31T14:28:58;14.20;99.90
40077;DHT22;25777;47.824;18.982;2023-03-31T14:32:23;14.30;99.90
40077;DHT22;25777;47.824;18.982;2023-03-31T14:37:29;14.40;99.90
40077;DHT22;25777;47.824;18.982;2023-03-31T14:40:25;14.40;99.90
40077;DHT22;25777;47.824;18.982;2023-03-31T14:42:57;14.50;99.90
40077;DHT22;25777;47.824;18.982;2023-03-31T14:45:30;14.60;99.90
40077;DHT22;25777;47.824;18.982;2023-03-31T14:47:58;14.70;99.90
40077;DHT22;25777;47.824;18.982;2023-03-31T14:50:34;14.90;99.90
40077;DHT22;25777;47.824;18.982;2023-03-31T14:53:02;14.90;99.90
40077;DHT22;25777;47.824;18.982;2023-03-31T14:55:32;15.10;99.90
40077;DHT22;25777;47.824;18.982;2023-03-31T14:58:01;15.10;99.90
40077;DHT22;25777;47.824;18.982;2023-03-31T15:00:32;15.30;99.90
40077;DHT22;25777;47.824;18.982;2023-03-31T15:03:01;15.20;99.90
40077;DHT22;25777;47.824;18.982;2023-03-31T15:05:36;15.10;99.90
40077;DHT22;25777;47.824;18.982;2023-03-31T15:08:09;15.00;99.90
40077;DHT22;25777;47.824;18.982;2023-03-31T15:10:42;14.90;99.90
40077;DHT22;25777;47.824;18.982;2023-03-31T15:13:44;14.90;99.90
40077;DHT22;25777;47.824;18.982;2023-03-31T15:16:37;14.80;99.90
40077;DHT22;25777;47.824;18.982;2023-03-31T15:22:07;14.70;99.90
40077;DHT22;25777;47.824;18.982;2023-03-31T15:24:42;14.60;99.90
40077;DHT22;25777;47.824;18.982;2023-03-31T15:29:43;14.60;99.90
40077;DHT22;25777;47.824;18.982;2023-03-31T15:32:29;14.70;99.90
40077;DHT22;25777;47.824;18.982;2023-03-31T15:34:57;14.70;99.90
40077;DHT22;25777;47.824;18.982;2023-03-31T15:37:42;14.70;99.90
40077;DHT22;25777;47.824;18.982;2023-03-31T15:43:31;14.60;99.90
40077;DHT22;25777;47.824;18.982;2023-03-31T15:46:00;14.30;99.90
40077;DHT22;25777;47.824;18.982;2023-03-31T15:48:51;14.30;99.90
40077;DHT22;25777;47.824;18.982;2023-03-31T15:51:37;14.30;99.90
40077;DHT22;25777;47.824;18.982;2023-03-31T15:56:59;14.00;99.90
40077;DHT22;25777;47.824;18.982;2023-03-31T15:59:52;14.10;99.90
40077;DHT22;25777;47.824;18.982;2023-03-31T16:02:38;14.00;99.90
40077;DHT22;25777;47.824;18.982;2023-03-31T16:05:36;14.00;99.90
40077;DHT22;25777;47.824;18.982;2023-03-31T16:08:09;13.90;99.90
40077;DHT22;25777;47.824;18.982;2023-03-31T16:10:40;14.00;99.90
40077;DHT22;25777;47.824;18.982;2023-03-31T16:13:10;14.00;99.90
40077;DHT22;25777;47.824;18.982;2023-03-31T16:15:50;14.00;99.90
40077;DHT22;25777;47.824;18.982;2023-03-31T16:18:38;13.90;99.90
40077;DHT22;25777;47.824;18.982;2023-03-31T16:21:08;13.90;99.90
40077;DHT22;25777;47.824;18.982;2023-03-31T16:23:37;13.90;99.90
40077;DHT22;25777;47.824;18.982;2023-03-31T16:26:07;13.80;99.90
40077;DHT22;25777;47.824;18.982;2023-03-31T16:28:36;13.70;99.90
40077;DHT22;25777;47.824;18.982;2023-03-31T16:31:03;13.90;99.90
40077;DHT22;25777;47.824;18.982;2023-03-31T16:33:52;14.00;99.90
40077;DHT22;25777;47.824;18.982;2023-03-31T16:36:21;14.00;99.90
40077;DHT22;25777;47.824;18.982;2023-03-31T16:38:54;14.60;99.90
40077;DHT22;25777;47.824;18.982;2023-03-31T16:41:22;14.70;99.90
40077;DHT22;25777;47.824;18.982;2023-03-31T16:43:50;14.70;99.90
40077;DHT22;25777;47.824;18.982;2023-03-31T16:46:17;14.60;99.90
40077;DHT22;25777;47.824;18.982;2023-03-31T16:48:47;14.80;99.90
40077;DHT22;25777;47.824;18.982;2023-03-31T16:51:15;15.30;98.50
40077;DHT22;25777;47.824;18.982;2023-03-31T16:53:47;15.30;97.30
40077;DHT22;25777;47.824;18.982;2023-03-31T16:56:18;15.40;96.20
40077;DHT22;25777;47.824;18.982;2023-03-31T16:58:45;15.30;95.80
40077;DHT22;25777;47.824;18.982;2023-03-31T17:01:11;15.20;97.00
40077;DHT22;25777;47.824;18.982;2023-03-31T17:03:38;15.10;96.20
40077;DHT22;25777;47.824;18.982;2023-03-31T17:06:11;15.30;94.50
40077;DHT22;25777;47.824;18.982;2023-03-31T17:08:38;15.30;95.50
40077;DHT22;25777;47.824;18.982;2023-03-31T17:11:15;15.00;97.40
40077;DHT22;25777;47.824;18.982;2023-03-31T17:13:49;14.50;99.90
40077;DHT22;25777;47.824;18.982;2023-03-31T17:19:21;13.40;99.90
40077;DHT22;25777;47.824;18.982;2023-03-31T17:21:47;12.90;99.90
40077;DHT22;25777;47.824;18.982;2023-03-31T17:24:15;12.70;99.90
40077;DHT22;25777;47.824;18.982;2023-03-31T17:26:43;12.60;99.90
40077;DHT22;25777;47.824;18.982;2023-03-31T17:29:10;12.50;99.90
40077;DHT22;25777;47.824;18.982;2023-03-31T17:31:36;12.40;99.90
40077;DHT22;25777;47.824;18.982;2023-03-31T17:34:02;12.40;99.90
40077;DHT22;25777;47.824;18.982;2023-03-31T17:36:28;12.30;99.90
40077;DHT22;25777;47.824;18.982;2023-03-31T17:38:56;12.20;99.90
40077;DHT22;25777;47.824;18.982;2023-03-31T17:41:31;12.20;99.90
40077;DHT22;25777;47.824;18.982;2023-03-31T17:43:58;12.10;99.90
40077;DHT22;25777;47.824;18.982;2023-03-31T17:46:25;12.10;99.90
40077;DHT22;25777;47.824;18.982;2023-03-31T17:48:53;12.00;99.90
40077;DHT22;25777;47.824;18.982;2023-03-31T17:51:23;12.10;99.90
40077;DHT22;25777;47.824;18.982;2023-03-31T17:53:50;12.10;99.90
40077;DHT22;25777;47.824;18.982;2023-03-31T17:56:18;12.00;99.90
40077;DHT22;25777;47.824;18.982;2023-03-31T17:58:44;12.00;99.90
40077;DHT22;25777;47.824;18.982;2023-03-31T18:01:25;12.00;99.90
40077;DHT22;25777;47.824;18.982;2023-03-31T18:03:54;12.00;99.90
40077;DHT22;25777;47.824;18.982;2023-03-31T18:06:22;11.90;99.90
40077;DHT22;25777;47.824;18.982;2023-03-31T18:09:18;11.80;99.90
40077;DHT22;25777;47.824;18.982;2023-03-31T18:11:45;11.80;99.90
40077;DHT22;25777;47.824;18.982;2023-03-31T18:14:11;11.80;99.90
40077;DHT22;25777;47.824;18.982;2023-03-31T18:16:40;11.70;99.90
40077;DHT22;25777;47.824;18.982;2023-03-31T18:19:07;11.70;99.90
40077;DHT22;25777;47.824;18.982;2023-03-31T18:21:35;11.70;99.90
40077;DHT22;25777;47.824;18.982;2023-03-31T18:24:04;11.60;99.90
40077;DHT22;25777;47.824;18.982;2023-03-31T18:26:32;11.60;99.90
40077;DHT22;25777;47.824;18.982;2023-03-31T18:28:59;11.60;99.90
40077;DHT22;25777;47.824;18.982;2023-03-31T18:31:30;11.60;99.90
40077;DHT22;25777;47.824;18.982;2023-03-31T18:34:04;11.50;99.90
40077;DHT22;25777;47.824;18.982;2023-03-31T18:36:30;11.50;99.90
40077;DHT22;25777;47.824;18.982;2023-03-31T18:38:57;11.40;99.90
40077;DHT22;25777;47.824;18.982;2023-03-31T18:41:24;11.40;99.90
40077;DHT22;25777;47.824;18.982;2023-03-31T18:43:53;11.40;99.90
40077;DHT22;25777;47.824;18.982;2023-03-31T18:46:22;11.40;99.90
40077;DHT22;25777;47.824;18.982;2023-03-31T18:48:51;11.50;99.90
40077;DHT22;25777;47.824;18.982;2023-03-31T18:51:19;11.80;99.90